createdAt,value
2023-03-21T00:00:17.270Z,502.00
2023-03-21T00:01:16.209Z,502.00
2023-03-21T00:02:16.223Z,502.00
2023-03-21T00:03:16.187Z,501.00
2023-03-21T00:04:16.172Z,499.00
2023-03-21T00:05:16.350Z,501.00
2023-03-21T00:06:16.112Z,503.00
2023-03-21T00:07:16.075Z,503.00
2023-03-21T00:08:16.084Z,503.00
2023-03-21T00:09:16.044Z,503.00
2023-03-21T00:10:23.956Z,502.00
2023-03-21T00:11:17.163Z,502.00
2023-03-21T00:12:15.979Z,503.00
2023-03-21T00:13:15.972Z,503.00
2023-03-21T00:14:15.932Z,503.00
2023-03-21T00:15:15.893Z,502.00
2023-03-21T00:16:17.206Z,503.00
2023-03-21T00:17:16.847Z,504.00
2023-03-21T00:18:15.850Z,504.00
2023-03-21T00:19:15.814Z,503.00
2023-03-21T00:20:15.790Z,502.00
2023-03-21T00:21:44.004Z,502.00
2023-03-21T00:22:16.718Z,504.00
2023-03-21T00:23:15.694Z,503.00
2023-03-21T00:24:15.692Z,503.00
2023-03-21T00:25:15.653Z,501.00
2023-03-21T00:26:15.636Z,497.00
2023-03-21T00:27:41.370Z,502.00
2023-03-21T00:28:16.589Z,502.00
2023-03-21T00:29:15.542Z,502.00
2023-03-21T00:30:15.569Z,502.00
2023-03-21T00:31:15.512Z,502.00
2023-03-21T00:32:15.493Z,501.00
2023-03-21T00:33:22.281Z,504.00
2023-03-21T00:34:20.047Z,504.00
2023-03-21T00:35:51.751Z,504.00
2023-03-21T00:36:16.537Z,505.00
2023-03-21T00:37:15.402Z,507.00
2023-03-21T00:38:15.382Z,508.00
2023-03-21T00:39:15.387Z,506.00
2023-03-21T00:40:25.746Z,506.00
2023-03-21T00:41:26.351Z,504.00
2023-03-21T00:42:16.305Z,504.00
2023-03-21T00:43:15.251Z,506.00
2023-03-21T00:44:15.235Z,506.00
2023-03-21T00:45:15.209Z,506.00
2023-03-21T00:46:15.222Z,506.00
2023-03-21T00:47:15.184Z,504.00
2023-03-21T00:48:15.152Z,502.00
2023-03-21T00:49:15.107Z,502.00
2023-03-21T00:50:15.077Z,502.00
2023-03-21T00:51:15.068Z,502.00
2023-03-21T00:52:20.439Z,502.00
2023-03-21T00:53:16.028Z,502.00
2023-03-21T00:54:14.981Z,502.00
2023-03-21T00:55:14.960Z,502.00
2023-03-21T00:56:14.914Z,503.00
2023-03-21T00:57:14.898Z,501.00
2023-03-21T00:58:15.529Z,500.00
2023-03-21T00:59:14.833Z,503.00
2023-03-21T01:00:14.831Z,503.00
2023-03-21T01:01:14.839Z,502.00
2023-03-21T01:02:15.193Z,501.00
2023-03-21T01:03:24.586Z,504.00
2023-03-21T01:04:15.710Z,504.00
2023-03-21T01:05:14.686Z,504.00
2023-03-21T01:06:14.655Z,504.00
2023-03-21T01:07:15.515Z,503.00
2023-03-21T01:08:26.586Z,501.00
2023-03-21T01:09:15.587Z,504.00
2023-03-21T01:10:14.544Z,504.00
2023-03-21T01:11:14.516Z,500.00
2023-03-21T01:12:14.500Z,503.00
2023-03-21T01:13:14.459Z,500.00
2023-03-21T01:14:22.618Z,501.00
2023-03-21T01:15:15.413Z,501.00
2023-03-21T01:16:14.527Z,502.00
2023-03-21T01:17:14.365Z,500.00
2023-03-21T01:18:14.355Z,502.00
2023-03-21T01:19:25.044Z,498.00
2023-03-21T01:20:15.321Z,501.00
2023-03-21T01:21:14.300Z,502.00
2023-03-21T01:22:14.284Z,499.00
2023-03-21T01:23:14.242Z,498.00
2023-03-21T01:24:14.228Z,499.00
2023-03-21T01:25:22.370Z,503.00
2023-03-21T01:26:15.179Z,503.00
2023-03-21T01:27:14.175Z,503.00
2023-03-21T01:28:14.224Z,502.00
2023-03-21T01:29:14.120Z,502.00
2023-03-21T01:30:20.273Z,498.00
2023-03-21T01:31:15.178Z,503.00
2023-03-21T01:32:14.060Z,503.00
2023-03-21T01:33:14.044Z,497.00
2023-03-21T01:34:14.032Z,499.00
2023-03-21T01:35:14.009Z,498.00
2023-03-21T01:36:14.680Z,502.00
2023-03-21T01:37:13.962Z,503.00
2023-03-21T01:38:13.985Z,503.00
2023-03-21T01:39:13.913Z,500.00
2023-03-21T01:40:13.909Z,502.00
2023-03-21T01:41:19.504Z,503.00
2023-03-21T01:42:14.877Z,503.00
2023-03-21T01:43:13.834Z,503.00
2023-03-21T01:44:13.823Z,504.00
2023-03-21T01:45:13.803Z,503.00
2023-03-21T01:46:13.800Z,501.00
2023-03-21T01:47:13.778Z,503.00
2023-03-21T01:48:13.805Z,501.00
2023-03-21T01:49:13.716Z,503.00
2023-03-21T01:50:13.700Z,502.00
2023-03-21T01:51:13.684Z,500.00
2023-03-21T01:52:23.604Z,502.00
2023-03-21T01:53:14.646Z,502.00
2023-03-21T01:54:13.656Z,503.00
2023-03-21T01:55:13.614Z,502.00
2023-03-21T01:56:13.585Z,504.00
2023-03-21T01:57:13.576Z,505.00
2023-03-21T01:58:13.550Z,502.00
2023-03-21T01:59:13.549Z,501.00
2023-03-21T02:00:13.510Z,501.00
2023-03-21T02:01:13.522Z,502.00
2023-03-21T02:02:13.491Z,500.00
2023-03-21T02:03:21.015Z,505.00
2023-03-21T02:04:14.497Z,505.00
2023-03-21T02:05:13.419Z,506.00
2023-03-21T02:06:13.402Z,502.00
2023-03-21T02:07:13.372Z,505.00
2023-03-21T02:08:13.355Z,503.00
2023-03-21T02:09:13.328Z,500.00
2023-03-21T02:10:13.308Z,505.00
2023-03-21T02:11:13.286Z,502.00
2023-03-21T02:12:13.298Z,506.00
2023-03-21T02:13:13.253Z,504.00
2023-03-21T02:14:15.298Z,501.00
2023-03-21T02:15:13.229Z,501.00
2023-03-21T02:16:13.289Z,502.00
2023-03-21T02:17:13.175Z,502.00
2023-03-21T02:18:13.154Z,504.00
2023-03-21T02:19:15.740Z,505.00
2023-03-21T02:20:13.096Z,501.00
2023-03-21T02:21:13.089Z,502.00
2023-03-21T02:22:13.052Z,502.00
2023-03-21T02:23:13.032Z,501.00
2023-03-21T02:24:12.998Z,502.00
2023-03-21T02:25:21.788Z,502.00
2023-03-21T02:26:13.988Z,501.00
2023-03-21T02:27:13.004Z,502.00
2023-03-21T02:28:12.937Z,503.00
2023-03-21T02:29:12.889Z,502.00
2023-03-21T02:30:17.452Z,500.00
2023-03-21T02:31:13.902Z,501.00
2023-03-21T02:32:22.668Z,501.00
2023-03-21T02:33:13.830Z,501.00
2023-03-21T02:34:12.792Z,502.00
2023-03-21T02:35:12.772Z,501.00
2023-03-21T02:36:14.893Z,501.00
2023-03-21T02:37:12.740Z,502.00
2023-03-21T02:38:12.740Z,502.00
2023-03-21T02:39:12.708Z,500.00
2023-03-21T02:40:12.689Z,502.00
2023-03-21T02:41:18.349Z,502.00
2023-03-21T02:42:13.645Z,502.00
2023-03-21T02:43:22.618Z,502.00
2023-03-21T02:44:13.660Z,502.00
2023-03-21T02:45:12.580Z,502.00
2023-03-21T02:46:12.598Z,503.00
2023-03-21T02:47:12.572Z,501.00
2023-03-21T02:48:25.537Z,500.00
2023-03-21T02:49:13.500Z,502.00
2023-03-21T02:50:12.484Z,502.00
2023-03-21T02:51:12.469Z,499.00
2023-03-21T02:52:18.753Z,499.00
2023-03-21T02:53:13.433Z,502.00
2023-03-21T02:54:41.891Z,502.00
2023-03-21T02:55:13.384Z,502.00
2023-03-21T02:56:12.391Z,501.00
2023-03-21T02:57:12.329Z,499.00
2023-03-21T02:58:13.579Z,498.00
2023-03-21T02:59:12.292Z,496.00
2023-03-21T03:00:16.501Z,500.00
2023-03-21T03:01:13.279Z,501.00
2023-03-21T03:02:12.223Z,502.00
2023-03-21T03:03:18.203Z,501.00
2023-03-21T03:04:13.219Z,501.00
2023-03-21T03:05:20.720Z,501.00
2023-03-21T03:06:13.146Z,501.00
2023-03-21T03:07:12.178Z,502.00
2023-03-21T03:08:12.125Z,501.00
2023-03-21T03:09:12.128Z,501.00
2023-03-21T03:10:12.064Z,503.00
2023-03-21T03:11:12.037Z,502.00
2023-03-21T03:12:12.009Z,502.00
2023-03-21T03:13:12.016Z,505.00
2023-03-21T03:14:32.490Z,504.00
2023-03-21T03:15:12.972Z,504.00
2023-03-21T03:16:11.978Z,505.00
2023-03-21T03:17:11.921Z,503.00
2023-03-21T03:18:11.896Z,503.00
2023-03-21T03:19:11.881Z,502.00
2023-03-21T03:20:16.498Z,503.00
2023-03-21T03:21:12.839Z,503.00
2023-03-21T03:22:11.822Z,503.00
2023-03-21T03:23:11.811Z,502.00
2023-03-21T03:24:11.815Z,500.00
2023-03-21T03:25:21.424Z,499.00
2023-03-21T03:26:12.756Z,503.00
2023-03-21T03:27:11.729Z,503.00
2023-03-21T03:28:11.715Z,503.00
2023-03-21T03:29:11.713Z,498.00
2023-03-21T03:30:11.666Z,495.00
2023-03-21T03:31:12.077Z,501.00
2023-03-21T03:32:11.650Z,511.00
2023-03-21T03:33:11.636Z,509.00
2023-03-21T03:34:11.584Z,507.00
2023-03-21T03:35:11.569Z,507.00
2023-03-21T03:36:18.854Z,504.00
2023-03-21T03:37:12.548Z,505.00
2023-03-21T03:38:11.505Z,506.00
2023-03-21T03:39:11.490Z,506.00
2023-03-21T03:40:11.476Z,507.00
2023-03-21T03:41:11.612Z,504.00
2023-03-21T03:42:25.435Z,504.00
2023-03-21T03:43:12.401Z,505.00
2023-03-21T03:44:11.382Z,506.00
2023-03-21T03:45:11.357Z,508.00
2023-03-21T03:46:11.363Z,511.00
2023-03-21T03:47:17.429Z,503.00
2023-03-21T03:48:12.355Z,505.00
2023-03-21T03:49:11.267Z,505.00
2023-03-21T03:50:11.252Z,505.00
2023-03-21T03:51:11.233Z,501.00
2023-03-21T03:52:11.200Z,502.00
2023-03-21T03:53:18.108Z,500.00
2023-03-21T03:54:12.203Z,501.00
2023-03-21T03:55:11.136Z,502.00
2023-03-21T03:56:11.139Z,502.00
2023-03-21T03:57:11.106Z,501.00
2023-03-21T03:58:21.820Z,501.00
2023-03-21T03:59:12.066Z,501.00
2023-03-21T04:00:11.060Z,502.00
2023-03-21T04:01:11.049Z,501.00
2023-03-21T04:02:11.079Z,499.00
2023-03-21T04:03:11.148Z,499.00
2023-03-21T04:04:13.544Z,500.00
2023-03-21T04:05:10.964Z,502.00
2023-03-21T04:06:10.951Z,503.00
2023-03-21T04:07:10.933Z,501.00
2023-03-21T04:08:10.904Z,502.00
2023-03-21T04:09:20.449Z,501.00
2023-03-21T04:10:11.864Z,501.00
2023-03-21T04:11:10.863Z,502.00
2023-03-21T04:12:10.831Z,499.00
2023-03-21T04:13:10.802Z,498.00
2023-03-21T04:14:10.803Z,492.00
2023-03-21T04:15:11.389Z,500.00
2023-03-21T04:16:10.783Z,500.00
2023-03-21T04:17:10.719Z,504.00
2023-03-21T04:18:10.698Z,500.00
2023-03-21T04:19:10.708Z,500.00
2023-03-21T04:20:15.193Z,501.00
2023-03-21T04:21:11.657Z,500.00
2023-03-21T04:22:10.646Z,501.00
2023-03-21T04:23:10.609Z,501.00
2023-03-21T04:24:10.584Z,501.00
2023-03-21T04:25:10.719Z,500.00
2023-03-21T04:26:10.542Z,500.00
2023-03-21T04:27:10.526Z,502.00
2023-03-21T04:28:10.518Z,503.00
2023-03-21T04:29:10.508Z,501.00
2023-03-21T04:30:10.543Z,505.00
2023-03-21T04:31:22.612Z,500.00
2023-03-21T04:32:11.471Z,500.00
2023-03-21T04:33:10.416Z,501.00
2023-03-21T04:34:10.369Z,500.00
2023-03-21T04:35:10.385Z,502.00
2023-03-21T04:36:10.408Z,501.00
2023-03-21T04:37:10.323Z,503.00
2023-03-21T04:38:10.278Z,502.00
2023-03-21T04:39:10.270Z,502.00
2023-03-21T04:40:10.244Z,502.00
2023-03-21T04:41:10.220Z,501.00
2023-03-21T04:42:10.212Z,502.00
2023-03-21T04:43:10.197Z,504.00
2023-03-21T04:44:10.168Z,505.00
2023-03-21T04:45:10.143Z,502.00
2023-03-21T04:46:10.208Z,503.00
2023-03-21T04:47:10.121Z,506.00
2023-03-21T04:48:10.104Z,502.00
2023-03-21T04:49:10.051Z,504.00
2023-03-21T04:50:10.005Z,500.00
2023-03-21T04:51:09.981Z,502.00
2023-03-21T04:52:09.941Z,501.00
2023-03-21T04:53:09.921Z,504.00
2023-03-21T04:54:09.898Z,500.00
2023-03-21T04:55:09.882Z,501.00
2023-03-21T04:56:09.834Z,503.00
2023-03-21T04:57:09.811Z,503.00
2023-03-21T04:58:09.785Z,503.00
2023-03-21T04:59:09.778Z,501.00
2023-03-21T05:00:09.734Z,504.00
2023-03-21T05:01:09.767Z,503.00
2023-03-21T05:02:09.689Z,504.00
2023-03-21T05:03:09.667Z,504.00
2023-03-21T05:04:09.730Z,503.00
2023-03-21T05:05:09.638Z,500.00
2023-03-21T05:06:09.641Z,501.00
2023-03-21T05:07:09.582Z,501.00
2023-03-21T05:08:09.543Z,503.00
2023-03-21T05:09:09.537Z,502.00
2023-03-21T05:10:09.510Z,500.00
2023-03-21T05:11:09.494Z,503.00
2023-03-21T05:12:09.455Z,502.00
2023-03-21T05:13:09.449Z,501.00
2023-03-21T05:14:09.415Z,500.00
2023-03-21T05:15:09.385Z,505.00
2023-03-21T05:16:09.371Z,502.00
2023-03-21T05:17:09.336Z,502.00
2023-03-21T05:18:09.321Z,502.00
2023-03-21T05:19:09.295Z,501.00
2023-03-21T05:20:09.290Z,500.00
2023-03-21T05:21:09.242Z,503.00
2023-03-21T05:22:09.223Z,501.00
2023-03-21T05:23:09.201Z,503.00
2023-03-21T05:24:09.169Z,501.00
2023-03-21T05:25:09.178Z,501.00
2023-03-21T05:26:09.165Z,503.00
2023-03-21T05:27:09.120Z,502.00
2023-03-21T05:28:09.100Z,501.00
2023-03-21T05:29:09.081Z,504.00
2023-03-21T05:30:09.077Z,502.00
2023-03-21T05:31:09.075Z,503.00
2023-03-21T05:32:09.016Z,500.00
2023-03-21T05:33:09.019Z,502.00
2023-03-21T05:34:09.017Z,506.00
2023-03-21T05:35:08.994Z,501.00
2023-03-21T05:36:09.027Z,502.00
2023-03-21T05:37:08.938Z,502.00
2023-03-21T05:38:08.912Z,502.00
2023-03-21T05:39:08.913Z,503.00
2023-03-21T05:40:08.893Z,505.00
2023-03-21T05:41:08.898Z,503.00
2023-03-21T05:42:08.850Z,504.00
2023-03-21T05:43:08.842Z,504.00
2023-03-21T05:44:08.811Z,504.00
2023-03-21T05:45:08.800Z,504.00
2023-03-21T05:46:08.861Z,504.00
2023-03-21T05:47:08.770Z,502.00
2023-03-21T05:48:08.767Z,501.00
2023-03-21T05:49:08.743Z,505.00
2023-03-21T05:50:08.717Z,502.00
2023-03-21T05:51:08.740Z,501.00
2023-03-21T05:52:08.693Z,502.00
2023-03-21T05:53:08.680Z,500.00
2023-03-21T05:54:08.663Z,502.00
2023-03-21T05:55:08.664Z,500.00
2023-03-21T05:56:08.685Z,506.00
2023-03-21T05:57:08.633Z,505.00
2023-03-21T05:58:08.605Z,503.00
2023-03-21T05:59:08.616Z,505.00
2023-03-21T06:00:08.591Z,506.00
2023-03-21T06:01:08.647Z,501.00
2023-03-21T06:02:08.574Z,503.00
2023-03-21T06:03:08.560Z,502.00
2023-03-21T06:04:08.561Z,501.00
2023-03-21T06:05:08.509Z,502.00
2023-03-21T06:06:08.508Z,506.00
2023-03-21T06:07:08.518Z,506.00
2023-03-21T06:08:08.464Z,507.00
2023-03-21T06:09:08.466Z,505.00
2023-03-21T06:10:08.442Z,504.00
2023-03-21T06:11:08.435Z,506.00
2023-03-21T06:12:08.420Z,503.00
2023-03-21T06:13:08.377Z,504.00
2023-03-21T06:14:08.397Z,502.00
2023-03-21T06:15:08.375Z,502.00
2023-03-21T06:16:08.354Z,503.00
2023-03-21T06:17:08.328Z,502.00
2023-03-21T06:18:08.312Z,503.00
2023-03-21T06:19:08.284Z,502.00
2023-03-21T06:20:08.270Z,500.00
2023-03-21T06:21:08.231Z,502.00
2023-03-21T06:22:08.256Z,505.00
2023-03-21T06:23:08.233Z,500.00
2023-03-21T06:24:08.194Z,500.00
2023-03-21T06:25:08.167Z,500.00
2023-03-21T06:26:08.143Z,502.00
2023-03-21T06:27:08.127Z,500.00
2023-03-21T06:28:08.103Z,502.00
2023-03-21T06:29:08.138Z,502.00
2023-03-21T06:30:08.072Z,503.00
2023-03-21T06:31:08.090Z,500.00
2023-03-21T06:32:08.060Z,504.00
2023-03-21T06:33:08.044Z,504.00
2023-03-21T06:34:07.995Z,508.00
2023-03-21T06:35:07.977Z,509.00
2023-03-21T06:36:08.022Z,531.00
2023-03-21T06:37:08.162Z,532.00
2023-03-21T06:38:08.705Z,538.00
2023-03-21T06:39:07.911Z,549.00
2023-03-21T06:40:07.887Z,559.00
2023-03-21T06:41:07.866Z,574.00
2023-03-21T06:42:07.886Z,585.00
2023-03-21T06:43:07.822Z,592.00
2023-03-21T06:44:07.805Z,605.00
2023-03-21T06:45:07.843Z,612.00
2023-03-21T06:46:07.875Z,619.00
2023-03-21T06:47:07.807Z,632.00
2023-03-21T06:48:09.372Z,636.00
2023-03-21T06:49:07.716Z,657.00
2023-03-21T06:50:07.688Z,664.00
2023-03-21T06:51:07.655Z,667.00
2023-03-21T06:52:07.687Z,655.00
2023-03-21T06:53:07.600Z,631.00
2023-03-21T06:54:07.783Z,610.00
2023-03-21T06:55:07.566Z,586.00
2023-03-21T06:56:07.566Z,552.00
2023-03-21T06:57:07.574Z,548.00
2023-03-21T06:58:07.601Z,502.00
2023-03-21T06:59:07.500Z,526.00
2023-03-21T07:00:07.658Z,523.00
2023-03-21T07:01:07.449Z,471.00
2023-03-21T07:02:07.489Z,442.00
2023-03-21T07:03:07.679Z,400.00
2023-03-21T07:04:07.432Z,400.00
2023-03-21T07:05:07.446Z,400.00
2023-03-21T07:06:07.427Z,400.00
2023-03-21T07:07:07.441Z,400.00
2023-03-21T07:08:07.418Z,400.00
2023-03-21T07:09:07.439Z,400.00
2023-03-21T07:10:07.402Z,400.00
2023-03-21T07:11:07.396Z,400.00
2023-03-21T07:12:07.427Z,400.00
2023-03-21T07:13:07.390Z,401.00
2023-03-21T07:14:07.390Z,426.00
2023-03-21T07:15:07.377Z,454.00
2023-03-21T07:16:07.370Z,451.00
2023-03-21T07:17:07.335Z,456.00
2023-03-21T07:18:07.326Z,400.00
2023-03-21T07:19:07.339Z,429.00
2023-03-21T07:20:07.319Z,420.00
2023-03-21T07:21:07.302Z,479.00
2023-03-21T07:22:07.314Z,508.00
2023-03-21T07:23:07.304Z,526.00
2023-03-21T07:24:07.275Z,557.00
2023-03-21T07:25:07.371Z,547.00
2023-03-21T07:26:07.302Z,579.00
2023-03-21T07:27:07.272Z,589.00
2023-03-21T07:28:07.345Z,592.00
2023-03-21T07:29:07.252Z,604.00
2023-03-21T07:30:07.286Z,551.00
2023-03-21T07:31:07.283Z,546.00
2023-03-21T07:32:07.262Z,523.00
2023-03-21T07:33:07.299Z,539.00
2023-03-21T07:34:07.339Z,504.00
2023-03-21T07:35:07.240Z,522.00
2023-03-21T07:36:07.288Z,500.00
2023-03-21T07:37:07.244Z,504.00
2023-03-21T07:38:07.305Z,500.00
2023-03-21T07:39:07.224Z,529.00
2023-03-21T07:40:07.219Z,646.00
2023-03-21T07:41:07.227Z,615.00
2023-03-21T07:42:07.222Z,624.00
2023-03-21T07:43:07.203Z,634.00
2023-03-21T07:45:07.710Z,665.00
2023-03-21T07:46:07.200Z,750.00
2023-03-21T07:47:07.152Z,838.00
2023-03-21T07:48:07.172Z,931.00
2023-03-21T07:49:07.181Z,1003.00
2023-03-21T07:50:07.130Z,1082.00
2023-03-21T07:51:07.130Z,1160.00
2023-03-21T07:52:07.092Z,1225.00
2023-03-21T07:53:07.190Z,1287.00
2023-03-21T07:54:07.056Z,1337.00
2023-03-21T07:55:07.023Z,1405.00
2023-03-21T07:56:07.031Z,1487.00
2023-03-21T07:57:06.992Z,1542.00
2023-03-21T07:58:06.997Z,1616.00
2023-03-21T07:59:06.969Z,1661.00
2023-03-21T08:00:06.959Z,1704.00
2023-03-21T08:01:06.933Z,1761.00
2023-03-21T08:02:07.027Z,1807.00
2023-03-21T08:03:06.936Z,1853.00
2023-03-21T08:04:06.883Z,1882.00
2023-03-21T08:05:06.884Z,1907.00
2023-03-21T08:06:06.915Z,1951.00
2023-03-21T08:07:06.835Z,1988.00
2023-03-21T08:08:06.822Z,2021.00
2023-03-21T08:09:06.834Z,2055.00
2023-03-21T08:10:06.792Z,2103.00
2023-03-21T08:11:06.783Z,2125.00
2023-03-21T08:12:06.778Z,2169.00
2023-03-21T08:13:06.763Z,2198.00
2023-03-21T08:14:06.715Z,2232.00
2023-03-21T08:15:06.720Z,2268.00
2023-03-21T08:16:06.686Z,2303.00
2023-03-21T08:17:06.730Z,2331.00
2023-03-21T08:18:06.747Z,2344.00
2023-03-21T08:19:06.624Z,2346.00
2023-03-21T08:20:06.605Z,2355.00
2023-03-21T08:21:08.280Z,2375.00
2023-03-21T08:22:06.582Z,2418.00
2023-03-21T08:23:06.572Z,2350.00
2023-03-21T08:24:06.526Z,2372.00
2023-03-21T08:25:06.469Z,2417.00
2023-03-21T08:26:06.462Z,2487.00
2023-03-21T08:27:06.468Z,2591.00
2023-03-21T08:28:06.414Z,2623.00
2023-03-21T08:29:06.403Z,2641.00
2023-03-21T08:30:06.491Z,2664.00
2023-03-21T08:31:06.515Z,2662.00
2023-03-21T08:32:06.324Z,2676.00
2023-03-21T08:33:06.373Z,2697.00
2023-03-21T08:34:06.283Z,2717.00
2023-03-21T08:35:06.232Z,2729.00
2023-03-21T08:36:06.283Z,2754.00
2023-03-21T08:37:06.211Z,2772.00
2023-03-21T08:38:06.192Z,2763.00
2023-03-21T08:39:06.142Z,2727.00
2023-03-21T08:40:06.196Z,2669.00
2023-03-21T08:41:06.106Z,2583.00
2023-03-21T08:42:06.100Z,2549.00
2023-03-21T08:43:06.149Z,2582.00
2023-03-21T08:44:06.082Z,2565.00
2023-03-21T08:45:06.015Z,2547.00
2023-03-21T08:46:06.099Z,2549.00
2023-03-21T08:47:05.964Z,2546.00
2023-03-21T08:48:05.915Z,2552.00
2023-03-21T08:49:05.923Z,2560.00
2023-03-21T08:50:05.897Z,2547.00
2023-03-21T08:51:05.861Z,2550.00
2023-03-21T08:52:05.862Z,2542.00
2023-03-21T08:53:05.826Z,2542.00
2023-03-21T08:54:05.785Z,2543.00
2023-03-21T08:55:05.759Z,2536.00
2023-03-21T08:56:05.725Z,2568.00
2023-03-21T08:57:05.699Z,2570.00
2023-03-21T08:58:05.705Z,2580.00
2023-03-21T08:59:05.671Z,2600.00
2023-03-21T09:00:05.599Z,2630.00
2023-03-21T09:01:05.867Z,2709.00
2023-03-21T09:02:05.622Z,2698.00
2023-03-21T09:03:05.597Z,2712.00
2023-03-21T09:04:05.514Z,2714.00
2023-03-21T09:05:05.469Z,2738.00
2023-03-21T09:06:05.447Z,2765.00
2023-03-21T09:07:05.416Z,2771.00
2023-03-21T09:08:05.442Z,2799.00
2023-03-21T09:09:05.394Z,2813.00
2023-03-21T09:10:20.199Z,2799.00
2023-03-21T09:11:06.316Z,2801.00
2023-03-21T09:12:05.283Z,2807.00
2023-03-21T09:13:05.261Z,2823.00
2023-03-21T09:14:05.232Z,2854.00
2023-03-21T09:15:05.197Z,2925.00
2023-03-21T09:16:05.364Z,2972.00
2023-03-21T09:17:05.133Z,2984.00
2023-03-21T09:18:05.118Z,3070.00
2023-03-21T09:19:05.066Z,3138.00
2023-03-21T09:20:05.128Z,3186.00
2023-03-21T09:21:05.002Z,3196.00
2023-03-21T09:22:04.967Z,3213.00
2023-03-21T09:23:04.971Z,3236.00
2023-03-21T09:24:04.906Z,3241.00
2023-03-21T09:25:04.888Z,3243.00
2023-03-21T09:26:04.858Z,3245.00
2023-03-21T09:27:04.834Z,3244.00
2023-03-21T09:28:04.853Z,3251.00
2023-03-21T09:29:04.778Z,3270.00
2023-03-21T09:30:04.739Z,3318.00
2023-03-21T09:31:04.731Z,3381.00
2023-03-21T09:32:04.677Z,3345.00
2023-03-21T09:33:04.645Z,3379.00
2023-03-21T09:34:04.618Z,3318.00
2023-03-21T09:35:04.603Z,3314.00
2023-03-21T09:36:04.643Z,3305.00
2023-03-21T09:37:04.516Z,3288.00
2023-03-21T09:38:04.486Z,3248.00
2023-03-21T09:39:04.472Z,3071.00
2023-03-21T09:40:04.414Z,3019.00
2023-03-21T09:41:04.612Z,2937.00
2023-03-21T09:42:04.357Z,2889.00
2023-03-21T09:43:04.317Z,2810.00
2023-03-21T09:44:04.284Z,2550.00
2023-03-21T09:45:04.287Z,2505.00
2023-03-21T09:46:04.221Z,2491.00
2023-03-21T09:47:04.425Z,2453.00
2023-03-21T09:48:04.252Z,2331.00
2023-03-21T09:49:04.180Z,2066.00
2023-03-21T09:50:14.038Z,1209.00
2023-03-21T09:52:04.182Z,1216.00
2023-03-21T09:53:04.093Z,1309.00
2023-03-21T09:54:04.073Z,1463.00
2023-03-21T09:55:04.024Z,1680.00
2023-03-21T09:56:03.995Z,1788.00
2023-03-21T09:57:03.976Z,1860.00
2023-03-21T09:58:03.970Z,1937.00
2023-03-21T09:59:03.909Z,2013.00
2023-03-21T10:00:03.937Z,2017.00
2023-03-21T10:01:03.935Z,2041.00
2023-03-21T10:02:03.870Z,2104.00
2023-03-21T10:03:03.796Z,2217.00
2023-03-21T10:04:03.912Z,2369.00
2023-03-21T10:05:03.769Z,2411.00
2023-03-21T10:06:03.673Z,2479.00
2023-03-21T10:07:03.645Z,2544.00
2023-03-21T10:08:03.610Z,2604.00
2023-03-21T10:09:04.250Z,2656.00
2023-03-21T10:10:03.561Z,2687.00
2023-03-21T10:11:03.651Z,2716.00
2023-03-21T10:12:03.484Z,2741.00
2023-03-21T10:13:03.501Z,2760.00
2023-03-21T10:14:03.442Z,2789.00
2023-03-21T10:15:03.404Z,2716.00
2023-03-21T10:16:03.383Z,2709.00
2023-03-21T10:17:03.339Z,2752.00
2023-03-21T10:18:03.350Z,2742.00
2023-03-21T10:19:03.244Z,2743.00
2023-03-21T10:20:03.276Z,2763.00
2023-03-21T10:21:03.235Z,2783.00
2023-03-21T10:22:04.103Z,2770.00
2023-03-21T10:23:03.117Z,2756.00
2023-03-21T10:24:03.089Z,2762.00
2023-03-21T10:25:03.051Z,2752.00
2023-03-21T10:26:03.006Z,2738.00
2023-03-21T10:27:03.062Z,2727.00
2023-03-21T10:28:02.923Z,2719.00
2023-03-21T10:29:02.937Z,2705.00
2023-03-21T10:30:02.996Z,2724.00
2023-03-21T10:31:02.821Z,2716.00
2023-03-21T10:32:02.897Z,2672.00
2023-03-21T10:33:02.773Z,2643.00
2023-03-21T10:34:02.966Z,2645.00
2023-03-21T10:35:02.784Z,2493.00
2023-03-21T10:36:02.690Z,2181.00
2023-03-21T10:37:02.582Z,1779.00
2023-03-21T10:38:02.549Z,1370.00
2023-03-21T10:39:02.606Z,1416.00
2023-03-21T10:40:02.513Z,1376.00
2023-03-21T10:41:02.473Z,1457.00
2023-03-21T10:42:02.424Z,1496.00
2023-03-21T10:43:02.394Z,1516.00
2023-03-21T10:44:02.436Z,1621.00
2023-03-21T10:45:02.361Z,1656.00
2023-03-21T10:46:02.468Z,1637.00
2023-03-21T10:47:02.461Z,1673.00
2023-03-21T10:48:02.431Z,1792.00
2023-03-21T10:49:04.331Z,1877.00
2023-03-21T10:50:10.671Z,1932.00
2023-03-21T10:51:03.258Z,1934.00
2023-03-21T10:52:02.237Z,1948.00
2023-03-21T10:53:02.199Z,1985.00
2023-03-21T10:54:02.235Z,2051.00
2023-03-21T10:55:02.178Z,2115.00
2023-03-21T10:56:02.170Z,2127.00
2023-03-21T10:57:02.115Z,2170.00
2023-03-21T10:58:02.103Z,2219.00
2023-03-21T10:59:02.076Z,2262.00
2023-03-21T11:00:02.044Z,2273.00
2023-03-21T11:01:02.266Z,2321.00
2023-03-21T11:02:02.077Z,2332.00
2023-03-21T11:04:01.947Z,2388.00
2023-03-21T11:05:01.950Z,2390.00
2023-03-21T11:06:01.917Z,2397.00
2023-03-21T11:07:01.918Z,2423.00
2023-03-21T11:08:01.879Z,2467.00
2023-03-21T11:09:01.866Z,2532.00
2023-03-21T11:10:01.827Z,2587.00
2023-03-21T11:11:01.810Z,2603.00
2023-03-21T11:12:01.786Z,2605.00
2023-03-21T11:13:01.771Z,2623.00
2023-03-21T11:14:01.737Z,2673.00
2023-03-21T11:15:01.697Z,2681.00
2023-03-21T11:16:01.673Z,2670.00
2023-03-21T11:17:01.718Z,2663.00
2023-03-21T11:18:01.603Z,2375.00
2023-03-21T11:19:01.622Z,2493.00
2023-03-21T11:20:01.599Z,2482.00
2023-03-21T11:21:01.606Z,2357.00
2023-03-21T11:22:01.507Z,2210.00
2023-03-21T11:23:01.479Z,2108.00
2023-03-21T11:24:01.439Z,1851.00
2023-03-21T11:25:01.412Z,1589.00
2023-03-21T11:26:01.386Z,1386.00
2023-03-21T11:27:01.343Z,1375.00
2023-03-21T11:28:01.312Z,1303.00
2023-03-21T11:29:01.289Z,1299.00
2023-03-21T11:30:01.255Z,1088.00
2023-03-21T11:31:01.264Z,1089.00
2023-03-21T11:32:01.217Z,1091.00
2023-03-21T11:33:01.179Z,981.00
2023-03-21T11:34:01.155Z,734.00
2023-03-21T11:35:01.118Z,721.00
2023-03-21T11:36:01.124Z,731.00
2023-03-21T11:37:01.875Z,795.00
2023-03-21T11:38:01.058Z,788.00
2023-03-21T11:39:01.026Z,836.00
2023-03-21T11:40:00.984Z,843.00
2023-03-21T11:41:00.952Z,872.00
2023-03-21T11:42:00.956Z,948.00
2023-03-21T11:43:00.921Z,1011.00
2023-03-21T11:44:00.871Z,1044.00
2023-03-21T11:45:00.863Z,1146.00
2023-03-21T11:46:00.871Z,1174.00
2023-03-21T11:47:00.792Z,1241.00
2023-03-21T11:48:00.942Z,1307.00
2023-03-21T11:49:00.727Z,1355.00
2023-03-21T11:50:04.950Z,1356.00
2023-03-21T11:51:00.679Z,1357.00
2023-03-21T11:52:00.633Z,1363.00
2023-03-21T11:53:00.599Z,1385.00
2023-03-21T11:54:00.584Z,1438.00
2023-03-21T11:55:00.531Z,1562.00
2023-03-21T11:56:00.503Z,1634.00
2023-03-21T11:57:00.526Z,1647.00
2023-03-21T11:58:13.437Z,1698.00
2023-03-21T11:59:01.429Z,1699.00
2023-03-21T12:00:00.359Z,1707.00
2023-03-21T12:01:00.302Z,1732.00
2023-03-21T12:02:00.821Z,1775.00
2023-03-21T12:03:00.252Z,1848.00
2023-03-21T12:04:00.228Z,1851.00
2023-03-21T12:05:00.160Z,1873.00
2023-03-21T12:06:00.119Z,1880.00
2023-03-21T12:07:00.100Z,1904.00
2023-03-21T12:08:00.038Z,1916.00
2023-03-21T12:08:59.994Z,1918.00
2023-03-21T12:09:59.940Z,1928.00
2023-03-21T12:10:59.929Z,1948.00
2023-03-21T12:11:59.891Z,1951.00
2023-03-21T12:12:59.852Z,1951.00
2023-03-21T12:13:59.778Z,1990.00
2023-03-21T12:14:59.782Z,1956.00
2023-03-21T12:15:59.765Z,1972.00
2023-03-21T12:16:59.713Z,1980.00
2023-03-21T12:17:59.646Z,1992.00
2023-03-21T12:18:59.620Z,1982.00
2023-03-21T12:19:59.588Z,1974.00
2023-03-21T12:20:59.607Z,1997.00
2023-03-21T12:21:59.486Z,1981.00
2023-03-21T12:22:59.499Z,1982.00